Time;durP1;ratioP1;P1;durP2;ratioP2;P2;SDS_P1;SDS_P2;PMS_P1;PMS_P2;Temp;Humidity;BMP_temperature;BMP_pressure;BME280_temperature;BME280_humidity;BME280_pressure;Samples;Min_cycle;Max_cycle;Signal;HPM_P1;HPM_P2
2022/09/12 00:01:59;;;;;;;2.47;1.25;;;;;;;;;;5053489;28;20522;-60
2022/09/12 00:04:27;;;;;;;2.28;1.30;;;;;;;;;;5053392;28;20032;-60
2022/09/12 00:06:53;;;;;;;1.00;0.95;;;24.20;78.80;;;;;;5053002;28;20033;-61
2022/09/12 00:09:19;;;;;;;1.30;1.10;;;;;;;;;;5053478;28;20383;-61
2022/09/12 00:11:45;;;;;;;1.27;1.17;;;24.40;80.00;;;;;;5053149;28;20664;-60
2022/09/12 00:14:14;;;;;;;1.52;1.20;;;24.20;79.80;;;;;;5053177;28;20108;-61
2022/09/12 00:16:40;;;;;;;1.23;1.13;;;;;;;;;;5053081;28;20024;-61
2022/09/12 00:19:07;;;;;;;1.33;1.20;;;24.20;76.90;;;;;;5053340;28;20017;-61
2022/09/12 00:21:34;;;;;;;1.30;1.20;;;24.20;79.80;;;;;;5053008;28;20024;-60
2022/09/12 00:24:01;;;;;;;1.50;1.10;;;;;;;;;;5052920;28;20029;-60
2022/09/12 00:26:27;;;;;;;1.10;1.00;;;;;;;;;;5052934;28;20025;-60
2022/09/12 00:28:53;;;;;;;0.90;0.90;;;;;;;;;;5052887;28;20375;-61
2022/09/12 00:31:23;;;;;;;1.23;1.20;;;24.20;79.50;;;;;;5052846;28;20029;-60
2022/09/12 00:33:49;;;;;;;2.20;1.00;;;;;;;;;;5052732;28;20025;-60
2022/09/12 00:36:22;;;;;;;1.30;1.20;;;24.40;73.70;;;;;;5052708;28;20471;-60
2022/09/12 00:38:49;;;;;;;1.25;1.10;;;24.30;77.00;;;;;;5052956;28;20368;-60
2022/09/12 00:41:22;;;;;;;2.70;1.30;;;24.10;79.70;;;;;;5052550;28;20044;-60
2022/09/12 00:43:57;;;;;;;1.20;1.10;;;24.20;80.00;;;;;;5052569;28;20033;-60
2022/09/12 00:46:31;;;;;;;1.60;1.15;;;24.00;74.00;;;;;;5052654;28;20036;-61
2022/09/12 00:49:05;;;;;;;2.35;1.20;;;24.00;79.90;;;;;;5052496;28;20507;-60
2022/09/12 00:51:35;;;;;;;0.93;0.93;;;23.90;80.00;;;;;;5052478;28;20540;-60
2022/09/12 00:54:07;;;;;;;0.93;0.90;;;24.00;80.10;;;;;;5052440;28;20111;-60
2022/09/12 00:56:34;;;;;;;1.30;1.20;;;24.10;79.80;;;;;;5052471;28;20025;-60
2022/09/12 00:59:07;;;;;;;1.58;1.25;;;24.10;80.10;;;;;;5052311;28;20156;-61
2022/09/12 01:01:34;;;;;;;1.33;1.23;;;24.10;79.00;;;;;;5052537;28;20055;-60
2022/09/12 01:04:00;;;;;;;2.20;1.00;;;24.10;80.00;;;;;;5052256;28;20029;-61
2022/09/12 01:06:35;;;;;;;1.50;1.20;;;24.30;74.40;;;;;;5052224;28;20502;-61
2022/09/12 01:09:03;;;;;;;1.17;1.08;;;23.80;80.00;;;;;;5052204;28;20387;-61
2022/09/12 01:11:31;;;;;;;1.30;1.20;;;24.10;80.20;;;;;;5052171;28;20025;-60
2022/09/12 01:13:57;;;;;;;1.30;1.20;;;;;;;;;;5052196;28;20051;-60
2022/09/12 01:16:23;;;;;;;1.30;1.02;;;;;;;;;;5052138;28;20365;-60
2022/09/12 01:19:00;;;;;;;1.25;1.15;;;24.00;73.80;;;;;;5051630;28;20056;-61
2022/09/12 01:21:35;;;;;;;1.20;1.10;;;24.00;73.80;;;;;;5052027;28;20041;-60
2022/09/12 01:24:28;;;;;;;5.38;1.20;;;24.00;73.80;;;;;;5051957;28;20029;-60
2022/09/12 01:27:15;;;;;;;1.50;1.40;;;24.10;74.10;;;;;;5052068;28;20032;-60
2022/09/12 01:29:43;;;;;;;1.50;1.30;;;24.00;74.00;;;;;;5051987;28;20060;-61
2022/09/12 01:32:35;;;;;;;1.08;1.00;;;24.00;80.00;;;;;;5052132;28;20017;-61
2022/09/12 01:35:11;;;;;;;1.10;1.10;;;24.00;74.10;;;;;;5047869;28;20048;-60
2022/09/12 01:37:48;;;;;;;1.00;1.00;;;24.10;80.20;;;;;;5051966;28;20029;-61
2022/09/12 01:40:30;;;;;;;1.05;0.95;;;24.00;74.30;;;;;;5051827;28;20036;-60
2022/09/12 01:43:10;;;;;;;1.08;1.02;;;23.90;80.00;;;;;;5051915;28;20237;-60
2022/09/12 01:45:45;;;;;;;1.30;1.20;;;24.00;74.30;;;;;;5052095;28;20033;-61
2022/09/12 01:48:35;;;;;;;0.88;0.88;;;24.00;74.30;;;;;;5052026;28;20178;-61
2022/09/12 01:51:37;;;;;;;1.23;1.13;;;24.00;74.40;;;;;;5051819;28;20029;-61
2022/09/12 01:54:28;;;;;;;1.10;0.88;;;24.10;74.20;;;;;;5040231;28;20510;-61
2022/09/12 01:56:58;;;;;;;1.50;1.40;;;24.00;80.40;;;;;;5052048;28;20029;-60
2022/09/12 01:59:40;;;;;;;2.42;1.38;;;24.10;74.20;;;;;;5051432;28;20408;-60
2022/09/12 02:02:14;;;;;;;1.25;1.15;;;24.00;80.40;;;;;;5051659;28;20029;-60
2022/09/12 02:04:53;;;;;;;1.35;1.25;;;24.00;73.50;;;;;;5051683;28;20029;-60
2022/09/12 02:07:44;;;;;;;2.25;1.17;;;23.90;80.40;;;;;;5051675;28;20049;-60
2022/09/12 02:10:10;;;;;;;1.55;1.40;;;;;;;;;;5051697;28;20025;-60
2022/09/12 02:12:47;;;;;;;1.20;1.10;;;23.90;74.10;;;;;;5051656;28;20029;-60
2022/09/12 02:15:16;;;;;;;1.10;1.10;;;24.20;80.20;;;;;;5051578;28;20483;-60
2022/09/12 02:17:45;;;;;;;1.17;1.08;;;23.90;80.30;;;;;;5051607;28;20036;-60
2022/09/12 02:20:22;;;;;;;2.30;1.05;;;24.00;74.40;;;;;;5051636;28;20033;-61
2022/09/12 02:22:51;;;;;;;1.08;1.00;;;24.10;80.50;;;;;;5051759;28;20387;-60
2022/09/12 02:25:19;;;;;;;1.40;1.30;;;24.00;80.60;;;;;;5051567;28;20063;-61
2022/09/12 02:27:53;;;;;;;1.40;1.30;;;24.00;74.40;;;;;;5051494;28;20055;-60
2022/09/12 02:30:20;;;;;;;1.05;0.95;;;23.90;76.80;;;;;;5053256;28;20037;-60
2022/09/12 02:33:02;;;;;;;1.63;1.20;;;23.90;74.30;;;;;;5055083;28;20028;-60
2022/09/12 02:35:42;;;;;;;1.00;1.00;;;24.00;74.50;;;;;;5055105;28;20024;-60
2022/09/12 02:38:08;;;;;;;1.13;0.95;;;;;;;;;;5055060;28;20060;-60
2022/09/12 02:40:34;;;;;;;1.42;1.33;;;;;;;;;;5054871;28;20476;-60
2022/09/12 02:43:01;;;;;;;1.30;1.20;;;23.90;78.10;;;;;;5055152;28;20107;-60
2022/09/12 02:45:28;;;;;;;1.40;1.30;;;;;;;;;;5054816;28;20032;-60
2022/09/12 02:48:25;;;;;;;1.08;1.08;;;24.10;74.70;;;;;;5054819;28;20597;-60
2022/09/12 02:50:51;;;;;;;1.40;1.30;;;;;;;;;;5054793;28;20123;-60
2022/09/12 02:53:18;;;;;;;1.40;1.30;;;;;;;;;;5054698;28;20483;-60
2022/09/12 02:55:44;;;;;;;1.30;1.20;;;;;;;;;;5054589;28;20025;-61
2022/09/12 02:58:17;;;;;;;1.38;1.27;;;23.90;80.70;;;;;;5054445;28;20048;-60
2022/09/12 03:00:47;;;;;;;1.48;1.38;;;23.80;80.50;;;;;;5054530;28;20056;-61
2022/09/12 03:03:13;;;;;;;1.10;1.10;;;;;;;;;;5054801;28;20016;-60
2022/09/12 03:05:55;;;;;;;0.90;0.90;;;23.90;74.50;;;;;;5054500;28;20112;-60
2022/09/12 03:08:48;;;;;;;1.10;1.00;;;23.90;74.50;;;;;;5054478;28;20036;-60
2022/09/12 03:11:15;;;;;;;1.50;1.33;;;;;;;;;;5054378;28;20033;-61
2022/09/12 03:13:58;;;;;;;1.08;1.08;;;24.00;74.60;;;;;;5054285;28;20498;-61
2022/09/12 03:16:39;;;;;;;1.30;1.20;;;23.90;74.50;;;;;;5054224;28;20040;-61
2022/09/12 03:19:28;;;;;;;1.10;1.10;;;23.90;74.40;;;;;;5054228;28;20064;-60
2022/09/12 03:22:11;;;;;;;1.05;1.05;;;23.90;74.40;;;;;;5054165;28;20091;-61
2022/09/12 03:24:46;;;;;;;1.30;1.20;;;23.70;80.20;;;;;;5054320;28;20505;-60
2022/09/12 03:27:27;;;;;;;1.10;1.00;;;23.90;74.50;;;;;;5054102;28;20503;-55
2022/09/12 03:29:53;;;;;;;1.10;1.10;;;;;;;;;;5053990;28;20031;-56
2022/09/12 03:32:19;;;;;;;1.42;1.33;;;;;;;;;;5053919;28;20025;-56
2022/09/12 03:34:45;;;;;;;1.10;1.05;;;;;;;;;;5053949;28;20112;-57
2022/09/12 03:37:11;;;;;;;1.05;1.00;;;;;;;;;;5053823;28;20070;-56
2022/09/12 03:39:37;;;;;;;1.27;1.17;;;;;;;;;;5053678;28;20045;-57
2022/09/12 03:42:03;;;;;;;1.55;1.20;;;;;;;;;;5053350;28;20025;-56
2022/09/12 03:44:29;;;;;;;2.42;1.33;;;;;;;;;;5053855;28;20108;-56
2022/09/12 03:46:55;;;;;;;1.80;1.20;;;;;;;;;;5053649;28;20108;-54
2022/09/12 03:49:21;;;;;;;0.85;0.85;;;;;;;;;;5053648;28;20498;-56
2022/09/12 03:51:47;;;;;;;1.08;1.08;;;;;;;;;;5053654;28;20060;-57
2022/09/12 03:54:13;;;;;;;1.60;1.08;;;;;;;;;;5053505;28;20029;-54
2022/09/12 03:56:40;;;;;;;1.10;1.10;;;;;;;;;;5053765;28;20147;-56
2022/09/12 03:59:06;;;;;;;1.13;1.10;;;;;;;;;;5053348;28;20075;-56
2022/09/12 04:07:28;;;;;;;1.70;1.60;;;;;;;;;;5040286;28;20025;-53
2022/09/12 04:09:55;;;;;;;1.38;1.27;;;;;;;;;;5033515;28;20460;-53
2022/09/12 04:12:21;;;;;;;1.52;1.38;;;;;;;;;;5033551;28;20029;-50
2022/09/12 04:14:47;;;;;;;1.45;1.30;;;;;;;;;;5033360;28;20032;-50
2022/09/12 04:17:13;;;;;;;1.08;1.08;;;;;;;;;;5033666;28;20033;-53
2022/09/12 04:19:39;;;;;;;1.33;1.23;;;;;;;;;;5033410;28;20041;-50
2022/09/12 04:22:05;;;;;;;1.25;1.15;;;;;;;;;;5033238;28;20026;-51
2022/09/12 04:24:31;;;;;;;1.10;1.10;;;;;;;;;;5033273;28;20029;-51
2022/09/12 04:26:57;;;;;;;1.30;1.30;;;;;;;;;;5033185;28;20383;-50
2022/09/12 04:29:23;;;;;;;1.23;1.23;;;;;;;;;;5033436;28;20048;-52
2022/09/12 04:31:49;;;;;;;1.00;1.00;;;;;;;;;;5033169;28;20416;-50
2022/09/12 04:34:15;;;;;;;1.15;1.10;;;;;;;;;;5033090;28;20029;-51
2022/09/12 04:36:41;;;;;;;1.20;1.20;;;;;;;;;;5033143;28;20483;-59
2022/09/12 04:39:08;;;;;;;1.98;1.20;;;;;;;;;;5033387;28;20034;-60
2022/09/12 04:41:36;;;;;;;1.25;1.10;;;23.70;79.90;;;;;;5032917;28;20041;-60
2022/09/12 04:44:05;;;;;;;1.38;1.27;;;23.70;80.00;;;;;;5032924;28;20033;-60
2022/09/12 04:46:33;;;;;;;1.80;1.17;;;23.60;80.20;;;;;;5032840;28;20029;-60
2022/09/12 04:48:59;;;;;;;1.27;1.20;;;;;;;;;;5032823;28;20021;-60
2022/09/12 04:51:30;;;;;;;1.27;1.23;;;23.80;74.60;;;;;;5033079;28;20380;-60
2022/09/12 04:53:58;;;;;;;1.40;1.30;;;23.70;80.80;;;;;;5031845;28;20113;-60
2022/09/12 04:56:25;;;;;;;1.45;1.30;;;;;;;;;;5032690;28;20030;-60
2022/09/12 04:58:51;;;;;;;1.10;1.10;;;;;;;;;;5032676;28;20036;-60
2022/09/12 05:01:21;;;;;;;1.85;1.42;;;23.60;80.70;;;;;;5032583;28;20048;-60
2022/09/12 05:03:48;;;;;;;1.50;1.40;;;23.70;77.40;;;;;;5012792;28;20050;-60
2022/09/12 05:06:26;;;;;;;1.98;1.25;;;23.60;80.60;;;;;;5012906;28;20033;-60
2022/09/12 05:08:52;;;;;;;1.10;1.10;;;;;;;;;;5012946;28;20370;-58
2022/09/12 05:11:30;;;;;;;1.42;1.33;;;23.70;74.80;;;;;;5012660;28;20034;-60
2022/09/12 05:13:56;;;;;;;1.60;1.50;;;;;;;;;;5012697;28;20041;-52
2022/09/12 05:16:25;;;;;;;1.98;1.80;;;23.70;80.80;;;;;;5012626;28;20129;-53
2022/09/12 05:18:51;;;;;;;2.03;1.52;;;;;;;;;;5012521;28;20116;-52
2022/09/12 05:21:21;;;;;;;2.42;1.73;;;23.70;80.90;;;;;;5012367;28;20038;-54
2022/09/12 05:23:50;;;;;;;1.52;1.42;;;23.70;80.80;;;;;;5012449;28;20503;-53
2022/09/12 05:26:19;;;;;;;1.60;1.50;;;;;;;;;;5012405;28;20034;-52
2022/09/12 05:28:45;;;;;;;2.20;1.60;;;;;;;;;;5012424;28;20029;-57
2022/09/12 05:31:13;;;;;;;1.50;1.40;;;23.70;81.00;;;;;;5012282;28;20030;-51
2022/09/12 05:33:40;;;;;;;3.38;2.10;;;23.60;81.10;;;;;;5012524;28;20057;-53
2022/09/12 05:36:09;;;;;;;3.72;1.90;;;23.50;80.90;;;;;;5012384;28;20034;-50
2022/09/12 05:38:36;;;;;;;4.18;2.40;;;;;;;;;;5012419;28;20065;-50
2022/09/12 05:41:13;;;;;;;3.15;1.58;;;23.70;80.80;;;;;;5012243;28;20110;-51
2022/09/12 05:43:41;;;;;;;5.35;1.80;;;23.70;80.80;;;;;;5012376;28;20088;-52
2022/09/12 05:46:10;;;;;;;3.30;1.80;;;23.70;80.80;;;;;;5012297;28;20022;-51
2022/09/12 05:48:37;;;;;;;2.72;1.98;;;23.60;79.90;;;;;;5012386;28;20122;-52
2022/09/12 05:51:08;;;;;;;2.95;1.80;;;23.70;81.00;;;;;;5012383;28;20503;-52
2022/09/12 05:53:36;;;;;;;3.05;1.75;;;23.60;80.90;;;;;;5012383;28;20034;-60
2022/09/12 05:56:06;;;;;;;2.88;1.55;;;23.60;81.00;;;;;;5012331;28;20037;-60
2022/09/12 05:58:32;;;;;;;4.97;2.05;;;;;;;;;;5012320;28;20380;-59
2022/09/12 06:01:18;;;;;;;2.55;1.70;;;23.70;74.80;;;;;;5012262;28;20045;-60
2022/09/12 06:03:51;;;;;;;2.40;2.20;;;23.60;81.20;;;;;;5011559;28;20041;-60
2022/09/12 06:06:20;;;;;;;4.28;2.10;;;23.50;81.20;;;;;;5015634;28;20442;-60
2022/09/12 06:08:48;;;;;;;4.15;2.28;;;23.70;81.40;;;;;;5016158;28;20030;-60
2022/09/12 06:11:24;;;;;;;2.85;2.60;;;23.60;81.40;;;;;;5016037;28;20080;-59
2022/09/12 06:13:51;;;;;;;2.92;1.95;;;;;;;;;;5016029;28;20393;-60
2022/09/12 06:16:21;;;;;;;4.05;2.10;;;23.70;81.60;;;;;;5015838;28;20029;-60
2022/09/12 06:18:48;;;;;;;2.80;1.88;;;23.70;80.30;;;;;;5015826;28;20034;-60
2022/09/12 06:21:15;;;;;;;2.65;2.13;;;;;;;;;;5015716;28;20420;-60
2022/09/12 06:23:41;;;;;;;4.85;2.50;;;;;;;;;;5015825;28;20022;-60
2022/09/12 06:26:09;;;;;;;3.42;2.30;;;23.40;80.40;;;;;;5015745;28;20380;-58
2022/09/12 06:28:38;;;;;;;3.45;2.25;;;23.60;80.50;;;;;;5015771;28;20029;-58
2022/09/12 06:31:12;;;;;;;3.08;2.63;;;23.70;74.30;;;;;;5015707;28;20103;-58
2022/09/12 06:33:40;;;;;;;2.90;2.30;;;23.70;79.80;;;;;;5015884;28;20037;-58
2022/09/12 06:36:09;;;;;;;2.40;2.08;;;23.70;80.00;;;;;;5015569;28;20033;-58
2022/09/12 06:38:35;;;;;;;2.47;2.20;;;;;;;;;;5015510;28;20037;-58
2022/09/12 06:41:06;;;;;;;3.45;2.78;;;23.70;73.70;;;;;;5015408;28;20030;-58
2022/09/12 06:43:32;;;;;;;;;;;23.90;80.50;;;;;;5015867;28;20434;-58
2022/09/12 06:45:58;;;;;;;2.63;1.95;;;;;;;;;;5015827;28;19906;-58
2022/09/12 06:48:24;;;;;;;2.22;2.00;;;;;;;;;;5015375;28;20488;-58
2022/09/12 06:50:57;;;;;;;4.00;2.20;;;23.90;74.50;;;;;;5015370;28;20480;-58
2022/09/12 06:53:23;;;;;;;2.60;2.30;;;;;;;;;;5015145;28;20028;-57
2022/09/12 06:55:59;;;;;;;3.00;2.08;;;23.50;74.10;;;;;;5015268;28;20382;-58
2022/09/12 06:58:26;;;;;;;5.45;2.22;;;23.60;76.60;;;;;;5015192;28;20140;-58
2022/09/12 07:00:52;;;;;;;2.70;1.92;;;;;;;;;;5015324;28;20358;-58
2022/09/12 07:03:18;;;;;;;3.05;2.05;;;;;;;;;;5014881;28;20049;-58
2022/09/12 07:05:45;;;;;;;2.25;2.05;;;23.80;80.40;;;;;;5015080;28;20052;-57
2022/09/12 07:08:11;;;;;;;3.22;2.00;;;;;;;;;;5014859;28;20049;-58
2022/09/12 07:10:37;;;;;;;3.30;2.15;;;;;;;;;;5014803;28;20069;-58
2022/09/12 07:13:03;;;;;;;3.63;1.98;;;;;;;;;;5014804;28;20026;-58
2022/09/12 07:15:29;;;;;;;2.30;2.10;;;;;;;;;;5014631;28;20026;-57
2022/09/12 07:17:55;;;;;;;2.35;2.10;;;;;;;;;;5013846;28;20507;-58
2022/09/12 07:20:21;;;;;;;3.33;1.98;;;;;;;;;;5014947;28;20132;-58
2022/09/12 07:22:47;;;;;;;2.65;2.30;;;;;;;;;;5014685;28;20056;-58
2022/09/12 07:25:13;;;;;;;5.38;2.42;;;;;;;;;;5014714;28;20109;-58
2022/09/12 07:27:39;;;;;;;2.90;2.30;;;;;;;;;;5014374;28;20025;-58
2022/09/12 07:30:06;;;;;;;1.95;1.77;;;;;;;;;;5014506;28;20030;-58
2022/09/12 07:32:32;;;;;;;2.35;2.15;;;;;;;;;;5014474;28;20037;-58
2022/09/12 07:34:58;;;;;;;2.33;1.75;;;;;;;;;;5014502;28;20037;-58
2022/09/12 07:37:24;;;;;;;4.35;2.60;;;;;;;;;;5014234;28;20026;-58
2022/09/12 07:39:51;;;;;;;4.05;2.78;;;;;;;;;;5014084;28;20153;-58
2022/09/12 07:42:17;;;;;;;3.15;2.40;;;;;;;;;;5014201;28;20030;-58
2022/09/12 07:44:43;;;;;;;5.10;2.25;;;;;;;;;;5014141;28;20465;-58
2022/09/12 07:47:09;;;;;;;2.30;2.10;;;;;;;;;;5014067;28;20026;-58
2022/09/12 07:49:35;;;;;;;5.55;2.53;;;;;;;;;;5014001;28;20030;-58
2022/09/12 07:52:01;;;;;;;4.47;3.03;;;;;;;;;;5013927;28;20436;-58
2022/09/12 07:54:27;;;;;;;3.03;2.72;;;;;;;;;;5013896;28;20033;-58
2022/09/12 07:56:53;;;;;;;6.50;3.58;;;;;;;;;;5013814;28;20411;-57
2022/09/12 07:59:19;;;;;;;4.88;3.35;;;;;;;;;;5013825;28;20100;-50
2022/09/12 08:01:45;;;;;;;5.75;3.47;;;;;;;;;;5013559;28;20077;-49
2022/09/12 08:04:11;;;;;;;4.90;3.65;;;;;;;;;;5013541;28;20454;-49
2022/09/12 08:06:37;;;;;;;3.47;3.17;;;;;;;;;;5013724;28;20030;-48
2022/09/12 08:09:04;;;;;;;6.32;3.30;;;23.90;78.60;;;;;;5013683;28;20034;-51
2022/09/12 08:11:30;;;;;;;4.25;3.78;;;;;;;;;;5013655;28;20472;-49
2022/09/12 08:13:57;;;;;;;4.85;3.50;;;23.90;79.60;;;;;;5013505;28;20030;-49
2022/09/12 08:16:26;;;;;;;4.47;3.45;;;23.90;79.40;;;;;;5013684;28;20476;-49
2022/09/12 08:18:52;;;;;;;6.80;3.70;;;;;;;;;;5013689;28;20040;-48
2022/09/12 08:21:22;;;;;;;6.65;3.15;;;24.00;79.30;;;;;;5013434;28;20034;-49
2022/09/12 08:24:00;;;;;;;6.05;3.20;;;23.80;72.90;;;;;;5013518;28;20451;-49
2022/09/12 08:26:26;;;;;;;5.35;2.95;;;;;;;;;;5013503;28;20026;-48
2022/09/12 08:28:52;;;;;;;3.85;2.83;;;;;;;;;;5013238;28;20108;-49
2022/09/12 08:31:20;;;;;;;3.40;3.10;;;24.10;79.20;;;;;;5013408;28;20029;-50
2022/09/12 08:33:46;;;;;;;3.72;2.70;;;;;;;;;;5013397;28;20034;-48
2022/09/12 08:36:20;;;;;;;2.55;2.30;;;24.20;73.00;;;;;;5013350;28;20472;-49
2022/09/12 08:38:54;;;;;;;5.13;2.55;;;24.20;79.00;;;;;;5013309;28;20026;-48
2022/09/12 08:41:20;;;;;;;3.40;2.45;;;;;;;;;;5013163;28;20096;-49
2022/09/12 08:43:47;;;;;;;3.05;2.28;;;;;;;;;;5013138;28;20034;-48
2022/09/12 08:46:23;;;;;;;4.65;2.50;;;24.20;73.10;;;;;;5013121;28;20481;-49
2022/09/12 08:48:50;;;;;;;5.18;2.78;;;24.30;78.90;;;;;;5013069;28;20028;-49
2022/09/12 08:51:19;;;;;;;3.45;3.10;;;24.40;79.20;;;;;;5013043;28;20034;-48
2022/09/12 08:53:48;;;;;;;5.53;2.50;;;24.30;78.80;;;;;;5012922;28;20080;-50
2022/09/12 08:56:15;;;;;;;6.13;2.88;;;;;;;;;;5011702;28;20552;-57
2022/09/12 08:58:44;;;;;;;3.65;2.95;;;24.40;78.60;;;;;;5012901;28;20041;-57
2022/09/12 09:01:34;;;;;;;4.25;3.20;;;24.40;72.40;;;;;;5012739;28;20037;-57
2022/09/12 09:04:12;;;;;;;4.07;2.38;;;24.40;72.50;;;;;;5012572;28;20056;-57
2022/09/12 09:06:52;;;;;;;3.42;2.78;;;24.50;72.50;;;;;;5012981;28;20026;-57
2022/09/12 09:09:43;;;;;;;7.10;3.20;;;24.60;73.10;;;;;;5012557;28;20152;-57
2022/09/12 09:12:27;;;;;;;5.03;3.10;;;24.60;72.90;;;;;;5012686;28;20041;-57
2022/09/12 09:15:00;;;;;;;4.68;3.03;;;24.70;78.80;;;;;;5012730;28;20040;-49
2022/09/12 09:17:39;;;;;;;3.92;3.10;;;24.70;72.60;;;;;;5012629;28;20030;-49
2022/09/12 09:20:30;;;;;;;5.63;2.80;;;24.70;78.50;;;;;;5012445;28;20229;-48
2022/09/12 09:23:20;;;;;;;4.35;3.15;;;24.80;72.00;;;;;;5012481;28;20058;-51
2022/09/12 09:25:58;;;;;;;3.40;2.55;;;24.90;71.50;;;;;;5012562;28;20105;-50
2022/09/12 09:28:47;;;;;;;3.88;1.75;;;24.90;71.20;;;;;;5012445;28;20026;-48
2022/09/12 09:31:18;;;;;;;2.47;2.20;;;24.90;70.90;;;;;;5012290;28;20021;-57
2022/09/12 09:33:48;;;;;;;2.65;2.30;;;24.70;76.90;;;;;;5012352;28;20419;-57
2022/09/12 09:36:19;;;;;;;6.87;2.10;;;24.90;70.60;;;;;;5012198;28;20029;-57
2022/09/12 09:38:53;;;;;;;3.10;2.40;;;25.10;70.70;;;;;;5012497;28;20080;-59
2022/09/12 09:41:58;;;;;;;3.65;2.08;;;25.00;70.40;;;;;;5016125;28;20072;-58
2022/09/12 09:44:27;;;;;;;1.92;1.55;;;24.90;76.20;;;;;;5016740;28;20435;-59
2022/09/12 09:46:57;;;;;;;2.75;2.17;;;25.10;76.30;;;;;;5016421;28;20021;-58
2022/09/12 09:49:24;;;;;;;3.20;2.00;;;25.10;76.20;;;;;;5016257;28;20415;-49
2022/09/12 09:51:50;;;;;;;3.30;2.00;;;;;;;;;;5016283;28;20044;-49
2022/09/12 09:54:22;;;;;;;3.97;2.15;;;25.10;69.90;;;;;;5016187;28;20538;-51
2022/09/12 09:56:48;;;;;;;3.60;1.55;;;;;;;;;;5016166;28;20068;-50
2022/09/12 09:59:14;;;;;;;3.90;1.63;;;;;;;;;;5016077;28;20038;-51
2022/09/12 10:01:46;;;;;;;2.00;1.63;;;25.30;70.00;;;;;;5015944;28;20045;-50
2022/09/12 10:04:24;;;;;;;3.70;1.88;;;25.40;70.10;;;;;;5015909;28;20076;-53
2022/09/12 10:06:52;;;;;;;2.55;1.60;;;25.40;76.10;;;;;;5016138;28;20065;-50
2022/09/12 10:09:21;;;;;;;4.93;1.83;;;25.30;75.70;;;;;;5016017;28;20105;-59
2022/09/12 10:11:48;;;;;;;2.33;1.67;;;25.40;73.00;;;;;;5015985;28;20037;-58
2022/09/12 10:14:43;;;;;;;1.52;1.42;;;25.40;69.30;;;;;;5015878;28;20029;-59
2022/09/12 10:17:30;;;;;;;1.42;1.33;;;25.60;69.30;;;;;;5002900;28;20185;-59
2022/09/12 10:19:57;;;;;;;1.98;1.67;;;25.50;73.20;;;;;;5015782;28;20096;-59
2022/09/12 10:22:27;;;;;;;2.38;1.73;;;25.50;75.40;;;;;;5015741;28;20112;-59
2022/09/12 10:24:58;;;;;;;2.45;1.65;;;25.50;75.30;;;;;;5015773;28;20112;-59
2022/09/12 10:27:29;;;;;;;1.65;1.45;;;25.30;75.30;;;;;;5015734;28;20168;-59
2022/09/12 10:30:16;;;;;;;2.85;1.42;;;25.60;75.50;;;;;;5015675;28;20030;-59
2022/09/12 10:32:44;;;;;;;1.95;1.50;;;25.40;75.20;;;;;;5015679;28;20392;-59
2022/09/12 10:35:21;;;;;;;4.10;1.60;;;25.60;69.20;;;;;;5015540;28;20029;-59
2022/09/12 10:38:01;;;;;;;1.95;1.35;;;25.60;69.10;;;;;;5015440;28;20030;-58
2022/09/12 10:40:37;;;;;;;2.03;1.80;;;25.50;68.80;;;;;;5015310;28;20396;-59
2022/09/12 10:43:38;;;;;;;1.70;1.38;;;25.40;74.90;;;;;;5015436;28;20361;-59
2022/09/12 10:46:23;;;;;;;2.15;1.20;;;25.70;69.10;;;;;;5004866;28;20481;-51
2022/09/12 10:48:51;;;;;;;1.85;1.70;;;25.70;75.10;;;;;;5015271;28;20029;-50
2022/09/12 10:51:23;;;;;;;1.52;1.42;;;25.70;68.90;;;;;;5015135;28;20079;-50
2022/09/12 10:53:57;;;;;;;1.40;1.30;;;25.80;75.00;;;;;;5015141;28;20034;-52
2022/09/12 10:56:31;;;;;;;1.63;1.30;;;25.80;75.00;;;;;;5015101;28;20050;-50
2022/09/12 10:59:18;;;;;;;1.40;1.30;;;25.80;68.80;;;;;;5015097;28;20030;-53
2022/09/12 11:01:48;;;;;;;1.90;1.35;;;25.80;74.90;;;;;;5014818;28;20034;-51
2022/09/12 11:04:14;;;;;;;2.57;1.43;;;;;;;;;;5014895;28;20046;-51
2022/09/12 11:07:11;;;;;;;1.40;1.20;;;25.80;68.60;;;;;;5014922;28;20477;-51
2022/09/12 11:09:46;;;;;;;5.22;1.17;;;25.90;74.80;;;;;;5014914;28;20104;-51
2022/09/12 11:12:16;;;;;;;4.47;1.50;;;25.90;74.70;;;;;;5014881;28;20026;-55
2022/09/12 11:15:00;;;;;;;5.28;1.42;;;26.00;68.40;;;;;;5014949;28;20568;-55
2022/09/12 11:17:55;;;;;;;3.05;1.10;;;26.00;68.40;;;;;;5014727;28;20030;-52
2022/09/12 11:20:21;;;;;;;1.60;1.50;;;;;;;;;;5009137;28;20060;-54
2022/09/12 11:23:16;;;;;;;1.20;0.98;;;26.00;68.00;;;;;;5014561;28;20058;-60
2022/09/12 11:26:17;;;;;;;2.08;1.00;;;26.10;68.00;;;;;;5014512;28;20379;-60
2022/09/12 11:29:01;;;;;;;2.08;1.15;;;26.10;67.80;;;;;;5004424;28;20041;-60
2022/09/12 11:32:04;;;;;;;2.45;1.30;;;26.10;67.70;;;;;;5014531;28;20038;-60
2022/09/12 11:34:52;;;;;;;1.63;1.00;;;25.80;67.60;;;;;;5014371;28;20384;-60
2022/09/12 11:37:18;;;;;;;1.73;1.30;;;;;;;;;;5014394;28;20022;-60
2022/09/12 11:39:47;;;;;;;2.55;1.17;;;26.10;73.80;;;;;;5014167;28;20026;-55
2022/09/12 11:42:21;;;;;;;1.52;1.38;;;26.10;73.70;;;;;;5014396;28;20037;-59
2022/09/12 11:44:55;;;;;;;1.05;0.88;;;26.00;73.70;;;;;;5014137;28;20026;-59
2022/09/12 11:47:22;;;;;;;2.15;1.45;;;26.00;73.30;;;;;;5014018;28;20030;-58
2022/09/12 11:49:50;;;;;;;2.67;1.27;;;26.00;73.60;;;;;;4996456;28;20022;-59
2022/09/12 11:52:19;;;;;;;2.58;1.20;;;26.10;73.80;;;;;;5014056;28;20029;-59
2022/09/12 11:54:50;;;;;;;1.20;1.05;;;26.10;73.70;;;;;;5013974;28;20097;-59
2022/09/12 11:57:16;;;;;;;3.05;1.33;;;;;;;;;;5013900;28;20041;-57
2022/09/12 11:59:54;;;;;;;1.77;1.27;;;26.10;67.70;;;;;;5013811;28;20034;-49
2022/09/12 12:02:28;;;;;;;1.45;1.00;;;26.10;67.70;;;;;;5013133;28;20492;-48
2022/09/12 12:05:34;;;;;;;1.30;1.20;;;26.10;67.70;;;;;;5014055;28;20173;-51
2022/09/12 12:08:03;;;;;;;1.38;1.27;;;26.10;74.10;;;;;;5010453;28;20069;-48
2022/09/12 12:10:36;;;;;;;1.98;1.15;;;26.10;67.70;;;;;;5013671;28;20022;-52
2022/09/12 12:13:06;;;;;;;1.20;1.10;;;26.10;73.90;;;;;;5013790;28;20018;-51
2022/09/12 12:15:35;;;;;;;1.70;1.02;;;26.10;74.00;;;;;;5013670;28;20080;-52
2022/09/12 12:18:21;;;;;;;1.08;1.00;;;26.00;73.90;;;;;;5013569;28;20403;-59
2022/09/12 12:20:47;;;;;;;1.88;1.20;;;;;;;;;;5013453;28;20045;-57
2022/09/12 12:23:25;;;;;;;2.45;1.27;;;26.10;67.80;;;;;;5013355;28;20030;-57
2022/09/12 12:25:57;;;;;;;1.30;1.20;;;26.00;74.20;;;;;;5013289;28;20026;-59
2022/09/12 12:28:40;;;;;;;1.58;1.15;;;26.10;68.00;;;;;;5013529;28;20029;-59
2022/09/12 12:31:07;;;;;;;2.00;1.13;;;;;;;;;;5013200;28;20037;-59
2022/09/12 12:33:32;;;;;;;1.35;1.25;;;;;;;;;;5013237;28;20432;-59
2022/09/12 12:35:58;;;;;;;1.20;1.00;;;;;;;;;;5013274;28;20029;-59
2022/09/12 12:38:35;;;;;;;1.20;1.10;;;26.20;67.90;;;;;;5013208;28;20069;-59
2022/09/12 12:41:16;;;;;;;5.28;1.50;;;26.00;68.00;;;;;;5012978;28;20033;-59
2022/09/12 12:43:47;;;;;;;1.27;1.17;;;26.00;68.00;;;;;;5012937;28;20115;-59
2022/09/12 12:46:18;;;;;;;1.23;0.90;;;25.80;74.00;;;;;;5012761;28;20026;-59
2022/09/12 12:48:49;;;;;;;1.00;1.00;;;26.00;74.00;;;;;;5012823;28;20034;-59
2022/09/12 12:51:55;;;;;;;1.10;1.00;;;26.00;74.30;;;;;;5012852;28;20030;-59
2022/09/12 12:54:47;;;;;;;2.72;1.15;;;25.90;68.00;;;;;;5010495;28;20104;-59
2022/09/12 12:57:18;;;;;;;1.30;1.20;;;25.90;68.10;;;;;;5012716;28;20022;-59
2022/09/12 12:59:52;;;;;;;1.15;0.98;;;25.90;68.20;;;;;;5012646;28;20034;-59
2022/09/12 13:02:26;;;;;;;2.55;1.17;;;25.90;68.00;;;;;;5012311;28;20054;-59
2022/09/12 13:04:52;;;;;;;1.23;1.10;;;;;;;;;;5012549;28;20060;-59
2022/09/12 13:07:30;;;;;;;1.33;1.17;;;25.90;74.40;;;;;;5012586;28;20049;-59
2022/09/12 13:09:56;;;;;;;1.15;1.02;;;26.20;73.60;;;;;;5012582;28;20472;-59
2022/09/12 13:12:26;;;;;;;1.65;1.55;;;25.90;75.00;;;;;;5012634;28;20021;-50
2022/09/12 13:14:58;;;;;;;1.83;1.20;;;25.90;74.70;;;;;;5011860;28;20376;-59
2022/09/12 13:17:32;;;;;;;1.85;1.30;;;25.80;68.50;;;;;;5012493;28;20030;-59
2022/09/12 13:20:06;;;;;;;1.10;0.98;;;25.90;68.60;;;;;;5012381;28;20045;-59
2022/09/12 13:22:43;;;;;;;1.45;1.00;;;25.90;68.60;;;;;;5012408;28;20125;-59
2022/09/12 13:25:21;;;;;;;2.38;1.30;;;25.70;68.40;;;;;;5012764;28;20436;-59
2022/09/12 13:27:57;;;;;;;1.58;1.13;;;25.80;68.50;;;;;;5012653;28;20041;-59
2022/09/12 13:30:23;;;;;;;3.42;1.33;;;;;;;;;;5012580;28;20034;-59
2022/09/12 13:32:49;;;;;;;4.13;1.23;;;;;;;;;;5012643;28;20538;-59
2022/09/12 13:35:28;;;;;;;1.10;1.00;;;25.80;74.90;;;;;;5012505;28;20029;-59
2022/09/12 13:38:14;;;;;;;1.48;1.10;;;25.60;68.50;;;;;;5012526;28;20054;-59
2022/09/12 13:40:55;;;;;;;1.40;1.15;;;25.90;68.50;;;;;;5012367;28;20045;-59
2022/09/12 13:43:34;;;;;;;1.33;1.23;;;25.90;74.90;;;;;;5012362;28;20488;-59
2022/09/12 13:46:01;;;;;;;1.67;1.33;;;;;;;;;;5012460;28;20473;-59
2022/09/12 13:48:27;;;;;;;1.63;0.98;;;;;;;;;;5012322;28;20120;-61
2022/09/12 13:50:59;;;;;;;1.10;0.98;;;25.80;68.90;;;;;;5012408;28;20033;-59
2022/09/12 13:53:31;;;;;;;2.17;1.23;;;25.80;75.20;;;;;;5012508;28;20163;-60
2022/09/12 13:55:59;;;;;;;5.00;1.25;;;26.00;75.60;;;;;;5012564;28;20045;-60
2022/09/12 13:58:31;;;;;;;4.00;1.42;;;25.80;75.90;;;;;;5012148;28;20029;-61